sensor_id;sensor_type;location;lat;lon;timestamp;pressure;altitude;pressure_sealevel;temperature;humidity
7018;BME280;3549;42.162;24.726;2023-04-27T00:00:10;47699.75;;;-141.97;55.70
7018;BME280;3549;42.162;24.726;2023-04-27T00:02:36;47680.53;;;-141.97;55.73
7018;BME280;3549;42.162;24.726;2023-04-27T00:05:03;47836.22;;;-141.97;55.57
7018;BME280;3549;42.162;24.726;2023-04-27T00:07:29;47742.03;;;-141.97;55.59
7018;BME280;3549;42.162;24.726;2023-04-27T00:09:55;47711.28;;;-141.97;55.62
7018;BME280;3549;42.162;24.726;2023-04-27T00:12:20;47680.53;;;-141.97;55.57
7018;BME280;3549;42.162;24.726;2023-04-27T00:14:46;47724.75;;;-141.97;55.64
7018;BME280;3549;42.162;24.726;2023-04-27T00:17:11;47694.00;;;-141.97;55.70
7018;BME280;3549;42.162;24.726;2023-04-27T00:19:37;47682.47;;;-141.97;55.70
7018;BME280;3549;42.162;24.726;2023-04-27T00:22:03;47674.78;;;-141.97;55.96
7018;BME280;3549;42.162;24.726;2023-04-27T00:24:29;47724.75;;;-141.97;55.60
7018;BME280;3549;42.162;24.726;2023-04-27T00:26:54;47659.38;;;-141.97;55.75
7018;BME280;3549;42.162;24.726;2023-04-27T00:29:20;47661.31;;;-141.97;55.64
7018;BME280;3549;42.162;24.726;2023-04-27T00:31:46;47680.53;;;-141.97;55.56
7018;BME280;3549;42.162;24.726;2023-04-27T00:34:11;47830.47;;;-141.97;55.93
7018;BME280;3549;42.162;24.726;2023-04-27T00:36:36;47705.53;;;-141.97;55.75
7018;BME280;3549;42.162;24.726;2023-04-27T00:39:02;47695.91;;;-141.97;56.17
7018;BME280;3549;42.162;24.726;2023-04-27T00:41:28;47722.81;;;-141.97;56.09
7018;BME280;3549;42.162;24.726;2023-04-27T00:43:53;47711.28;;;-141.97;55.99
7018;BME280;3549;42.162;24.726;2023-04-27T00:46:19;47755.50;;;-141.97;56.00
7018;BME280;3549;42.162;24.726;2023-04-27T00:48:45;47709.38;;;-141.97;56.04
7018;BME280;3549;42.162;24.726;2023-04-27T00:51:11;47676.69;;;-141.97;56.59
7018;BME280;3549;42.162;24.726;2023-04-27T00:53:36;47742.03;;;-141.97;56.69
7018;BME280;3549;42.162;24.726;2023-04-27T00:56:04;47665.16;;;-141.97;56.56
7018;BME280;3549;42.162;24.726;2023-04-27T00:58:30;47711.28;;;-141.97;56.09
7018;BME280;3549;42.162;24.726;2023-04-27T01:00:55;47713.22;;;-141.97;55.96
7018;BME280;3549;42.162;24.726;2023-04-27T01:03:22;47718.97;;;-141.97;55.82
7018;BME280;3549;42.162;24.726;2023-04-27T01:05:47;47738.19;;;-141.97;55.63
7018;BME280;3549;42.162;24.726;2023-04-27T01:08:13;47692.06;;;-141.97;55.84
7018;BME280;3549;42.162;24.726;2023-04-27T01:10:39;47717.06;;;-141.97;55.44
7018;BME280;3549;42.162;24.726;2023-04-27T01:13:05;47678.63;;;-141.97;55.26
7018;BME280;3549;42.162;24.726;2023-04-27T01:15:31;47686.31;;;-141.97;55.04
7018;BME280;3549;42.162;24.726;2023-04-27T01:18:00;47686.31;;;-141.97;54.68
7018;BME280;3549;42.162;24.726;2023-04-27T01:20:26;47692.06;;;-141.97;54.77
7018;BME280;3549;42.162;24.726;2023-04-27T01:22:57;47734.34;;;-141.97;54.45
7018;BME280;3549;42.162;24.726;2023-04-27T01:25:23;47734.34;;;-141.97;54.20
7018;BME280;3549;42.162;24.726;2023-04-27T01:27:49;47676.69;;;-141.97;54.29
7018;BME280;3549;42.162;24.726;2023-04-27T01:30:14;47709.38;;;-141.97;53.82
7018;BME280;3549;42.162;24.726;2023-04-27T01:32:40;47715.13;;;-141.97;53.83
7018;BME280;3549;42.162;24.726;2023-04-27T01:35:06;47707.44;;;-141.97;53.27
7018;BME280;3549;42.162;24.726;2023-04-27T01:37:32;47711.28;;;-141.97;53.53
7018;BME280;3549;42.162;24.726;2023-04-27T01:39:57;47605.56;;;-141.97;53.01
7018;BME280;3549;42.162;24.726;2023-04-27T01:42:23;47713.22;;;-141.97;53.36
7018;BME280;3549;42.162;24.726;2023-04-27T01:44:48;47669.00;;;-141.97;53.37
7018;BME280;3549;42.162;24.726;2023-04-27T01:47:15;47728.59;;;-141.97;53.34
7018;BME280;3549;42.162;24.726;2023-04-27T01:49:41;47718.97;;;-141.97;53.48
7018;BME280;3549;42.162;24.726;2023-04-27T01:52:06;47713.22;;;-141.97;53.16
7018;BME280;3549;42.162;24.726;2023-04-27T01:54:32;47742.03;;;-141.97;53.82
7018;BME280;3549;42.162;24.726;2023-04-27T01:56:57;47692.06;;;-141.97;53.44
7018;BME280;3549;42.162;24.726;2023-04-27T01:59:23;47818.94;;;-141.97;53.60
7018;BME280;3549;42.162;24.726;2023-04-27T02:01:49;47801.63;;;-141.97;53.48
7018;BME280;3549;42.162;24.726;2023-04-27T02:04:14;47701.69;;;-141.97;53.73
7018;BME280;3549;42.162;24.726;2023-04-27T02:06:40;47634.41;;;-141.97;53.43
7018;BME280;3549;42.162;24.726;2023-04-27T02:09:05;47692.06;;;-141.97;53.14
7018;BME280;3549;42.162;24.726;2023-04-27T02:11:31;47734.34;;;-141.97;53.63
7018;BME280;3549;42.162;24.726;2023-04-27T02:13:57;47730.50;;;-141.97;53.39
7018;BME280;3549;42.162;24.726;2023-04-27T02:16:22;47657.47;;;-141.97;54.08
7018;BME280;3549;42.162;24.726;2023-04-27T02:18:47;47722.81;;;-141.97;53.67
7018;BME280;3549;42.162;24.726;2023-04-27T02:21:13;47703.59;;;-141.97;53.76
7018;BME280;3549;42.162;24.726;2023-04-27T02:23:39;47694.00;;;-141.97;53.94
7018;BME280;3549;42.162;24.726;2023-04-27T02:26:04;47726.66;;;-141.97;53.93
7018;BME280;3549;42.162;24.726;2023-04-27T02:28:30;47707.44;;;-141.97;53.76
7018;BME280;3549;42.162;24.726;2023-04-27T02:30:56;47680.53;;;-141.97;53.53
7018;BME280;3549;42.162;24.726;2023-04-27T02:33:22;47815.09;;;-141.97;53.22
7018;BME280;3549;42.162;24.726;2023-04-27T02:35:47;47715.13;;;-141.97;53.24
7018;BME280;3549;42.162;24.726;2023-04-27T02:38:13;47645.94;;;-141.97;53.19
7018;BME280;3549;42.162;24.726;2023-04-27T02:40:38;47722.81;;;-141.97;53.02
7018;BME280;3549;42.162;24.726;2023-04-27T02:43:03;47707.44;;;-141.97;53.22
7018;BME280;3549;42.162;24.726;2023-04-27T02:45:29;47711.28;;;-141.97;52.69
7018;BME280;3549;42.162;24.726;2023-04-27T02:47:54;47817.00;;;-141.97;52.66
7018;BME280;3549;42.162;24.726;2023-04-27T02:50:20;47734.34;;;-141.97;52.29
7018;BME280;3549;42.162;24.726;2023-04-27T02:52:45;47715.13;;;-141.97;52.13
7018;BME280;3549;42.162;24.726;2023-04-27T02:55:11;47699.75;;;-141.97;51.80
7018;BME280;3549;42.162;24.726;2023-04-27T02:57:37;47661.31;;;-141.97;51.91
7018;BME280;3549;42.162;24.726;2023-04-27T03:00:03;47734.34;;;-141.97;51.83
7018;BME280;3549;42.162;24.726;2023-04-27T03:02:30;47684.38;;;-141.97;51.82
7018;BME280;3549;42.162;24.726;2023-04-27T03:04:56;47694.00;;;-141.97;51.64
7018;BME280;3549;42.162;24.726;2023-04-27T03:07:21;47663.22;;;-141.97;51.34
7018;BME280;3549;42.162;24.726;2023-04-27T03:09:47;47722.81;;;-141.97;51.67
7018;BME280;3549;42.162;24.726;2023-04-27T03:12:12;47670.91;;;-141.97;51.82
7018;BME280;3549;42.162;24.726;2023-04-27T03:14:37;47690.16;;;-141.97;51.80
7018;BME280;3549;42.162;24.726;2023-04-27T03:17:03;47688.22;;;-141.97;51.47
7018;BME280;3549;42.162;24.726;2023-04-27T03:19:29;47711.28;;;-141.97;51.44
7018;BME280;3549;42.162;24.726;2023-04-27T03:21:54;47730.50;;;-141.97;51.77
7018;BME280;3549;42.162;24.726;2023-04-27T03:24:19;47694.00;;;-141.97;51.50
7018;BME280;3549;42.162;24.726;2023-04-27T03:26:45;47707.44;;;-141.97;51.82
7018;BME280;3549;42.162;24.726;2023-04-27T03:29:11;47695.91;;;-141.97;52.04
7018;BME280;3549;42.162;24.726;2023-04-27T03:31:36;47742.03;;;-141.97;51.82
7018;BME280;3549;42.162;24.726;2023-04-27T03:34:02;47715.13;;;-141.97;51.86
7018;BME280;3549;42.162;24.726;2023-04-27T03:36:27;47699.75;;;-141.97;52.03
7018;BME280;3549;42.162;24.726;2023-04-27T03:38:52;47703.59;;;-141.97;52.05
7018;BME280;3549;42.162;24.726;2023-04-27T03:41:18;47722.81;;;-141.97;51.85
7018;BME280;3549;42.162;24.726;2023-04-27T03:43:43;47715.13;;;-141.97;51.77
7018;BME280;3549;42.162;24.726;2023-04-27T03:46:09;47695.91;;;-141.97;52.38
7018;BME280;3549;42.162;24.726;2023-04-27T03:48:34;47726.66;;;-141.97;52.08
7018;BME280;3549;42.162;24.726;2023-04-27T03:51:00;47707.44;;;-141.97;51.81
7018;BME280;3549;42.162;24.726;2023-04-27T03:53:26;47711.28;;;-141.97;52.07
7018;BME280;3549;42.162;24.726;2023-04-27T03:55:51;47709.38;;;-141.97;52.00
7018;BME280;3549;42.162;24.726;2023-04-27T03:58:16;47707.44;;;-141.97;52.18
7018;BME280;3549;42.162;24.726;2023-04-27T04:00:42;47676.69;;;-141.97;51.47
7018;BME280;3549;42.162;24.726;2023-04-27T04:03:07;47726.66;;;-141.97;51.58
7018;BME280;3549;42.162;24.726;2023-04-27T04:05:33;47707.44;;;-141.97;51.21
7018;BME280;3549;42.162;24.726;2023-04-27T04:07:58;47684.38;;;-141.97;51.03
7018;BME280;3549;42.162;24.726;2023-04-27T04:10:25;47726.66;;;-141.97;50.97
7018;BME280;3549;42.162;24.726;2023-04-27T04:12:51;47701.69;;;-141.97;50.87
7018;BME280;3549;42.162;24.726;2023-04-27T04:15:17;47718.97;;;-141.97;50.98
7018;BME280;3549;42.162;24.726;2023-04-27T04:17:42;47707.44;;;-141.97;50.84
7018;BME280;3549;42.162;24.726;2023-04-27T04:20:08;47826.63;;;-141.97;50.81
7018;BME280;3549;42.162;24.726;2023-04-27T04:22:35;47742.03;;;-141.97;51.01
7018;BME280;3549;42.162;24.726;2023-04-27T04:25:01;47661.31;;;-141.97;50.60
7018;BME280;3549;42.162;24.726;2023-04-27T04:27:26;47793.94;;;-141.97;51.05
7018;BME280;3549;42.162;24.726;2023-04-27T04:29:52;47688.22;;;-141.97;50.70
7018;BME280;3549;42.162;24.726;2023-04-27T04:32:17;47711.28;;;-141.97;50.50
7018;BME280;3549;42.162;24.726;2023-04-27T04:34:50;47732.44;;;-141.97;50.51
7018;BME280;3549;42.162;24.726;2023-04-27T04:37:15;47740.13;;;-141.97;50.41
7018;BME280;3549;42.162;24.726;2023-04-27T04:39:43;47682.47;;;-141.97;50.59
7018;BME280;3549;42.162;24.726;2023-04-27T04:42:08;47849.69;;;-141.97;50.74
7018;BME280;3549;42.162;24.726;2023-04-27T04:44:34;47718.97;;;-141.97;50.27
7018;BME280;3549;42.162;24.726;2023-04-27T04:46:59;47672.84;;;-141.97;50.22
7018;BME280;3549;42.162;24.726;2023-04-27T04:49:24;47715.13;;;-141.97;50.79
7018;BME280;3549;42.162;24.726;2023-04-27T04:51:50;47711.28;;;-141.97;50.72
7018;BME280;3549;42.162;24.726;2023-04-27T04:54:18;47684.38;;;-141.97;50.62
7018;BME280;3549;42.162;24.726;2023-04-27T04:56:43;47692.06;;;-141.97;50.44
7018;BME280;3549;42.162;24.726;2023-04-27T04:59:08;47697.84;;;-141.97;50.92
7018;BME280;3549;42.162;24.726;2023-04-27T05:01:34;47680.53;;;-141.97;50.49
7018;BME280;3549;42.162;24.726;2023-04-27T05:03:59;47661.31;;;-141.97;50.53
7018;BME280;3549;42.162;24.726;2023-04-27T05:06:24;47711.28;;;-141.97;50.78
7018;BME280;3549;42.162;24.726;2023-04-27T05:08:50;47703.59;;;-141.97;49.93
7018;BME280;3549;42.162;24.726;2023-04-27T05:11:16;47680.53;;;-141.97;50.65
7018;BME280;3549;42.162;24.726;2023-04-27T05:13:41;47672.84;;;-141.97;50.35
7018;BME280;3549;42.162;24.726;2023-04-27T05:16:12;47730.50;;;-141.97;50.15
7018;BME280;3549;42.162;24.726;2023-04-27T05:18:37;47715.13;;;-141.97;50.10
7018;BME280;3549;42.162;24.726;2023-04-27T05:21:02;47715.13;;;-141.97;50.35
7018;BME280;3549;42.162;24.726;2023-04-27T05:23:28;47688.22;;;-141.97;50.03
7018;BME280;3549;42.162;24.726;2023-04-27T05:25:56;47695.91;;;-141.97;50.11
7018;BME280;3549;42.162;24.726;2023-04-27T05:28:21;47724.75;;;-141.97;50.29
7018;BME280;3549;42.162;24.726;2023-04-27T05:30:47;47713.22;;;-141.97;49.97
7018;BME280;3549;42.162;24.726;2023-04-27T05:33:12;47697.84;;;-141.97;49.86
7018;BME280;3549;42.162;24.726;2023-04-27T05:35:38;47843.91;;;-141.97;49.25
7018;BME280;3549;42.162;24.726;2023-04-27T05:38:03;47722.81;;;-141.97;48.76
7018;BME280;3549;42.162;24.726;2023-04-27T05:40:28;47692.06;;;-141.97;48.51
7018;BME280;3549;42.162;24.726;2023-04-27T05:42:54;47676.69;;;-141.97;48.02
7018;BME280;3549;42.162;24.726;2023-04-27T05:45:20;47692.06;;;-141.97;47.64
7018;BME280;3549;42.162;24.726;2023-04-27T05:47:45;47655.53;;;-141.97;48.47
7018;BME280;3549;42.162;24.726;2023-04-27T05:50:11;47634.41;;;-141.97;48.30
7018;BME280;3549;42.162;24.726;2023-04-27T05:52:36;47669.00;;;-141.97;47.68
7018;BME280;3549;42.162;24.726;2023-04-27T05:55:03;47728.59;;;-141.97;47.99
7018;BME280;3549;42.162;24.726;2023-04-27T05:57:29;47772.78;;;-141.97;47.83
7018;BME280;3549;42.162;24.726;2023-04-27T05:59:55;47640.16;;;-141.97;47.70
7018;BME280;3549;42.162;24.726;2023-04-27T06:02:21;47713.22;;;-141.97;47.77
7018;BME280;3549;42.162;24.726;2023-04-27T06:04:47;47684.38;;;-141.97;47.72
7018;BME280;3549;42.162;24.726;2023-04-27T06:07:13;47690.16;;;-141.97;47.86
7018;BME280;3549;42.162;24.726;2023-04-27T06:09:40;47519.06;;;-141.97;47.70
7018;BME280;3549;42.162;24.726;2023-04-27T06:12:06;47811.25;;;-141.97;48.44
7018;BME280;3549;42.162;24.726;2023-04-27T06:14:33;47592.13;;;-141.97;48.06
7018;BME280;3549;42.162;24.726;2023-04-27T06:17:00;47576.75;;;-141.97;47.74
7018;BME280;3549;42.162;24.726;2023-04-27T06:19:25;47680.53;;;-141.97;47.57
7018;BME280;3549;42.162;24.726;2023-04-27T06:21:52;47692.06;;;-141.97;47.61
7018;BME280;3549;42.162;24.726;2023-04-27T06:24:18;47567.13;;;-141.97;47.85
7018;BME280;3549;42.162;24.726;2023-04-27T06:26:44;47670.91;;;-141.97;48.00
7018;BME280;3549;42.162;24.726;2023-04-27T06:29:10;47559.44;;;-141.97;48.10
7018;BME280;3549;42.162;24.726;2023-04-27T06:31:35;47586.34;;;-141.97;48.22
7018;BME280;3549;42.162;24.726;2023-04-27T06:34:01;47538.28;;;-141.97;47.75
7018;BME280;3549;42.162;24.726;2023-04-27T06:36:26;47670.91;;;-141.97;47.83
7018;BME280;3549;42.162;24.726;2023-04-27T06:38:53;47715.13;;;-141.97;47.41
7018;BME280;3549;42.162;24.726;2023-04-27T06:41:21;47815.09;;;-141.97;47.51
7018;BME280;3549;42.162;24.726;2023-04-27T06:43:46;47688.22;;;-141.97;47.95
7018;BME280;3549;42.162;24.726;2023-04-27T06:46:11;47626.72;;;-141.97;47.83
7018;BME280;3549;42.162;24.726;2023-04-27T06:48:37;47622.88;;;-141.97;47.66
7018;BME280;3549;42.162;24.726;2023-04-27T06:51:02;47517.16;;;-141.97;47.86
7018;BME280;3549;42.162;24.726;2023-04-27T06:53:29;47676.69;;;-141.97;47.47
7018;BME280;3549;42.162;24.726;2023-04-27T06:55:55;47644.00;;;-141.97;47.12
7018;BME280;3549;42.162;24.726;2023-04-27T06:58:20;47492.16;;;-141.97;47.22
7018;BME280;3549;42.162;24.726;2023-04-27T07:00:46;47592.13;;;-141.97;47.12
7018;BME280;3549;42.162;24.726;2023-04-27T07:03:11;47782.41;;;-141.97;46.99
7018;BME280;3549;42.162;24.726;2023-04-27T07:05:37;47674.78;;;-141.97;47.11
7018;BME280;3549;42.162;24.726;2023-04-27T07:08:02;47703.59;;;-141.97;47.09
7018;BME280;3549;42.162;24.726;2023-04-27T07:10:28;47647.84;;;-141.97;46.78
7018;BME280;3549;42.162;24.726;2023-04-27T07:12:53;47699.75;;;-141.97;46.83
7018;BME280;3549;42.162;24.726;2023-04-27T07:15:20;47807.41;;;-141.97;47.17
7018;BME280;3549;42.162;24.726;2023-04-27T07:17:46;47630.56;;;-141.97;47.24
7018;BME280;3549;42.162;24.726;2023-04-27T07:20:11;47726.66;;;-141.97;47.00
7018;BME280;3549;42.162;24.726;2023-04-27T07:22:38;47713.22;;;-141.97;46.42
7018;BME280;3549;42.162;24.726;2023-04-27T07:25:04;47695.91;;;-141.97;45.58
7018;BME280;3549;42.162;24.726;2023-04-27T07:27:30;47742.03;;;-141.97;45.00
7018;BME280;3549;42.162;24.726;2023-04-27T07:29:56;47672.84;;;-141.97;44.80
7018;BME280;3549;42.162;24.726;2023-04-27T07:32:22;47672.84;;;-141.97;44.79
7018;BME280;3549;42.162;24.726;2023-04-27T07:34:47;47709.38;;;-141.97;43.39
7018;BME280;3549;42.162;24.726;2023-04-27T07:37:13;47676.69;;;-141.97;43.60
7018;BME280;3549;42.162;24.726;2023-04-27T07:39:40;47661.31;;;-141.97;43.59
7018;BME280;3549;42.162;24.726;2023-04-27T07:42:06;47838.16;;;-141.97;43.53
7018;BME280;3549;42.162;24.726;2023-04-27T07:44:32;47580.59;;;-141.97;43.37
7018;BME280;3549;42.162;24.726;2023-04-27T07:46:57;47688.22;;;-141.97;42.74
7018;BME280;3549;42.162;24.726;2023-04-27T07:49:23;47707.44;;;-141.97;42.89
7018;BME280;3549;42.162;24.726;2023-04-27T07:51:50;47669.00;;;-141.97;42.88
7018;BME280;3549;42.162;24.726;2023-04-27T07:54:16;47665.16;;;-141.97;43.37
7018;BME280;3549;42.162;24.726;2023-04-27T07:56:42;47726.66;;;-141.97;43.63
7018;BME280;3549;42.162;24.726;2023-04-27T07:59:08;47659.38;;;-141.97;42.54
7018;BME280;3549;42.162;24.726;2023-04-27T08:01:33;47724.75;;;-141.97;41.82
7018;BME280;3549;42.162;24.726;2023-04-27T08:03:59;47820.84;;;-141.97;41.42
7018;BME280;3549;42.162;24.726;2023-04-27T08:06:25;47692.06;;;-141.97;41.15
7018;BME280;3549;42.162;24.726;2023-04-27T08:08:53;47561.38;;;-141.97;40.21
7018;BME280;3549;42.162;24.726;2023-04-27T08:11:22;47849.69;;;-141.97;41.04
7018;BME280;3549;42.162;24.726;2023-04-27T08:13:48;47538.28;;;-141.97;40.03
7018;BME280;3549;42.162;24.726;2023-04-27T08:16:13;47699.75;;;-141.97;39.26
7018;BME280;3549;42.162;24.726;2023-04-27T08:18:39;47680.53;;;-141.97;39.57
7018;BME280;3549;42.162;24.726;2023-04-27T08:21:04;47832.38;;;-141.97;40.31
7018;BME280;3549;42.162;24.726;2023-04-27T08:23:30;47565.22;;;-141.97;40.57
7018;BME280;3549;42.162;24.726;2023-04-27T08:25:57;47684.38;;;-141.97;39.27
7018;BME280;3549;42.162;24.726;2023-04-27T08:28:23;47542.16;;;-141.97;38.44
7018;BME280;3549;42.162;24.726;2023-04-27T08:30:48;47532.53;;;-141.97;38.73
7018;BME280;3549;42.162;24.726;2023-04-27T08:33:14;47567.13;;;-141.97;38.77
7018;BME280;3549;42.162;24.726;2023-04-27T08:35:39;47576.75;;;-141.97;39.03
7018;BME280;3549;42.162;24.726;2023-04-27T08:38:05;47549.84;;;-141.97;38.93
7018;BME280;3549;42.162;24.726;2023-04-27T08:40:31;47670.91;;;-141.97;38.26
7018;BME280;3549;42.162;24.726;2023-04-27T08:42:59;47536.38;;;-141.97;38.28
7018;BME280;3549;42.162;24.726;2023-04-27T08:45:26;47607.50;;;-141.97;37.61
7018;BME280;3549;42.162;24.726;2023-04-27T08:47:52;47532.53;;;-141.97;37.34
7018;BME280;3549;42.162;24.726;2023-04-27T08:50:18;47684.38;;;-141.97;37.84
7018;BME280;3549;42.162;24.726;2023-04-27T08:52:45;47803.56;;;-141.97;38.71
7018;BME280;3549;42.162;24.726;2023-04-27T08:55:11;47665.16;;;-141.97;38.69
7018;BME280;3549;42.162;24.726;2023-04-27T08:57:37;47728.59;;;-141.97;38.26
7018;BME280;3549;42.162;24.726;2023-04-27T09:00:03;47540.22;;;-141.97;37.84
7018;BME280;3549;42.162;24.726;2023-04-27T09:02:36;47776.63;;;-141.97;39.05
7018;BME280;3549;42.162;24.726;2023-04-27T09:05:02;47567.13;;;-141.97;37.97
7018;BME280;3549;42.162;24.726;2023-04-27T09:07:28;47622.88;;;-141.97;37.25
7018;BME280;3549;42.162;24.726;2023-04-27T09:10:03;47453.72;;;-141.97;37.62
7018;BME280;3549;42.162;24.726;2023-04-27T09:12:29;47669.00;;;-141.97;36.38
7018;BME280;3549;42.162;24.726;2023-04-27T09:15:00;47569.06;;;-141.97;36.21
7018;BME280;3549;42.162;24.726;2023-04-27T09:17:28;47653.63;;;-141.97;35.89
7018;BME280;3549;42.162;24.726;2023-04-27T09:20:06;47653.63;;;-141.97;36.84
7018;BME280;3549;42.162;24.726;2023-04-27T09:22:53;47670.91;;;-141.97;37.22
7018;BME280;3549;42.162;24.726;2023-04-27T09:25:30;47647.84;;;-141.97;37.59
7018;BME280;3549;42.162;24.726;2023-04-27T09:27:58;47667.06;;;-141.97;37.14
7018;BME280;3549;42.162;24.726;2023-04-27T09:30:27;47803.56;;;-141.97;36.22
7018;BME280;3549;42.162;24.726;2023-04-27T09:32:58;47630.56;;;-141.97;36.07
7018;BME280;3549;42.162;24.726;2023-04-27T09:35:29;47624.78;;;-141.97;36.96
7018;BME280;3549;42.162;24.726;2023-04-27T09:37:59;47651.69;;;-141.97;36.99
7018;BME280;3549;42.162;24.726;2023-04-27T09:40:26;47657.47;;;-141.97;36.93
7018;BME280;3549;42.162;24.726;2023-04-27T09:42:58;47599.81;;;-141.97;37.21
7018;BME280;3549;42.162;24.726;2023-04-27T09:45:25;47661.31;;;-141.97;37.30
7018;BME280;3549;42.162;24.726;2023-04-27T09:47:52;47588.28;;;-141.97;38.12
7018;BME280;3549;42.162;24.726;2023-04-27T09:50:18;47642.09;;;-141.97;37.48
7018;BME280;3549;42.162;24.726;2023-04-27T09:52:45;47644.00;;;-141.97;37.07
7018;BME280;3549;42.162;24.726;2023-04-27T10:09:09;47613.25;;;-141.97;35.64
7018;BME280;3549;42.162;24.726;2023-04-27T10:11:41;47624.78;;;-141.97;35.27
7018;BME280;3549;42.162;24.726;2023-04-27T10:14:16;47667.06;;;-141.97;35.01
7018;BME280;3549;42.162;24.726;2023-04-27T10:16:45;47644.00;;;-141.97;35.72
7018;BME280;3549;42.162;24.726;2023-04-27T10:19:12;47661.31;;;-141.97;34.88
7018;BME280;3549;42.162;24.726;2023-04-27T10:24:33;47659.38;;;-141.97;38.68
7018;BME280;3549;42.162;24.726;2023-04-27T10:27:07;47499.84;;;-141.97;38.35
7018;BME280;3549;42.162;24.726;2023-04-27T10:29:36;47653.63;;;-141.97;38.66
7018;BME280;3549;42.162;24.726;2023-04-27T10:32:18;47722.81;;;-141.97;39.53
7018;BME280;3549;42.162;24.726;2023-04-27T10:34:46;47734.34;;;-141.97;39.11
7018;BME280;3549;42.162;24.726;2023-04-27T10:37:13;47626.72;;;-141.97;38.55
7018;BME280;3549;42.162;24.726;2023-04-27T10:39:44;47534.44;;;-141.97;36.90
7018;BME280;3549;42.162;24.726;2023-04-27T10:42:24;47661.31;;;-141.97;37.42
7018;BME280;3549;42.162;24.726;2023-04-27T10:44:55;47684.38;;;-141.97;36.22
7018;BME280;3549;42.162;24.726;2023-04-27T10:47:38;47444.13;;;-141.97;36.60
7018;BME280;3549;42.162;24.726;2023-04-27T10:50:13;47530.59;;;-141.97;35.86
7018;BME280;3549;42.162;24.726;2023-04-27T10:52:45;47401.84;;;-141.97;35.79
7018;BME280;3549;42.162;24.726;2023-04-27T10:55:19;47684.38;;;-141.97;35.39
7018;BME280;3549;42.162;24.726;2023-04-27T10:57:52;47734.34;;;-141.97;35.62
7018;BME280;3549;42.162;24.726;2023-04-27T11:00:42;47595.97;;;-141.97;35.63
7018;BME280;3549;42.162;24.726;2023-04-27T11:03:17;47613.25;;;-141.97;35.53
7018;BME280;3549;42.162;24.726;2023-04-27T11:05:45;47657.47;;;-141.97;35.34
7018;BME280;3549;42.162;24.726;2023-04-27T11:08:12;47699.75;;;-141.97;35.62
7018;BME280;3549;42.162;24.726;2023-04-27T11:10:47;47524.84;;;-141.97;35.48
7018;BME280;3549;42.162;24.726;2023-04-27T11:13:16;47665.16;;;-141.97;35.65
7018;BME280;3549;42.162;24.726;2023-04-27T11:15:56;47770.88;;;-141.97;35.22
7018;BME280;3549;42.162;24.726;2023-04-27T11:18:30;47434.50;;;-141.97;35.00
7018;BME280;3549;42.162;24.726;2023-04-27T11:21:10;47515.22;;;-141.97;35.60
7018;BME280;3549;42.162;24.726;2023-04-27T11:23:36;47461.41;;;-141.97;34.98
7018;BME280;3549;42.162;24.726;2023-04-27T11:28:35;47622.88;;;-141.97;34.40
7018;BME280;3549;42.162;24.726;2023-04-27T11:31:00;47446.03;;;-141.97;34.55
7018;BME280;3549;42.162;24.726;2023-04-27T11:33:26;47592.13;;;-141.97;34.81
7018;BME280;3549;42.162;24.726;2023-04-27T11:36:01;47799.72;;;-141.97;35.42
7018;BME280;3549;42.162;24.726;2023-04-27T11:38:33;47555.59;;;-141.97;35.17
7018;BME280;3549;42.162;24.726;2023-04-27T11:41:05;47749.72;;;-141.97;34.11
7018;BME280;3549;42.162;24.726;2023-04-27T11:43:31;47713.22;;;-141.97;33.00
7018;BME280;3549;42.162;24.726;2023-04-27T11:45:57;47455.66;;;-141.97;32.56
7018;BME280;3549;42.162;24.726;2023-04-27T11:48:24;47634.41;;;-141.97;32.73
7018;BME280;3549;42.162;24.726;2023-04-27T11:50:50;47680.53;;;-141.97;33.03
7018;BME280;3549;42.162;24.726;2023-04-27T11:53:28;47757.41;;;-141.97;32.83
7018;BME280;3549;42.162;24.726;2023-04-27T11:55:53;47761.25;;;-141.97;32.43
7018;BME280;3549;42.162;24.726;2023-04-27T11:58:19;47651.69;;;-141.97;31.58
7018;BME280;3549;42.162;24.726;2023-04-27T12:00:45;47490.25;;;-141.97;30.94
7018;BME280;3549;42.162;24.726;2023-04-27T12:03:11;47692.06;;;-141.97;31.32
7018;BME280;3549;42.162;24.726;2023-04-27T12:05:46;47718.97;;;-141.97;31.33
7018;BME280;3549;42.162;24.726;2023-04-27T12:08:13;47503.69;;;-141.97;31.44
7018;BME280;3549;42.162;24.726;2023-04-27T12:10:39;47786.25;;;-141.97;32.54
7018;BME280;3549;42.162;24.726;2023-04-27T12:13:05;47736.28;;;-141.97;31.47
7018;BME280;3549;42.162;24.726;2023-04-27T12:15:30;47496.00;;;-141.97;31.40
7018;BME280;3549;42.162;24.726;2023-04-27T12:17:55;47476.78;;;-141.97;31.30
7018;BME280;3549;42.162;24.726;2023-04-27T12:20:21;47638.25;;;-141.97;31.26
7018;BME280;3549;42.162;24.726;2023-04-27T12:22:46;47436.44;;;-141.97;31.15
7018;BME280;3549;42.162;24.726;2023-04-27T12:25:12;47626.72;;;-141.97;30.92
7018;BME280;3549;42.162;24.726;2023-04-27T12:27:39;47653.63;;;-141.97;30.92
7018;BME280;3549;42.162;24.726;2023-04-27T12:30:05;47793.94;;;-141.97;30.64
7018;BME280;3549;42.162;24.726;2023-04-27T12:32:31;47546.00;;;-141.97;31.06
7018;BME280;3549;42.162;24.726;2023-04-27T12:34:57;47624.78;;;-141.97;30.20
7018;BME280;3549;42.162;24.726;2023-04-27T12:37:23;47578.66;;;-141.97;28.69
7018;BME280;3549;42.162;24.726;2023-04-27T12:39:48;47595.97;;;-141.97;28.65
7018;BME280;3549;42.162;24.726;2023-04-27T12:42:14;47499.84;;;-141.97;29.30
7018;BME280;3549;42.162;24.726;2023-04-27T12:44:43;47603.66;;;-141.97;29.13
7018;BME280;3549;42.162;24.726;2023-04-27T12:47:10;47743.97;;;-141.97;27.97
7018;BME280;3549;42.162;24.726;2023-04-27T12:49:35;47447.97;;;-141.97;27.74
7018;BME280;3549;42.162;24.726;2023-04-27T12:52:00;47565.22;;;-141.97;29.66
7018;BME280;3549;42.162;24.726;2023-04-27T12:54:26;47538.28;;;-141.97;29.77
7018;BME280;3549;42.162;24.726;2023-04-27T12:56:51;47586.34;;;-141.97;28.26
7018;BME280;3549;42.162;24.726;2023-04-27T12:59:17;47567.13;;;-141.97;27.66
7018;BME280;3549;42.162;24.726;2023-04-27T13:01:42;47563.28;;;-141.97;27.99
7018;BME280;3549;42.162;24.726;2023-04-27T13:04:17;47570.97;;;-141.97;28.72
7018;BME280;3549;42.162;24.726;2023-04-27T13:06:43;47536.38;;;-141.97;28.29